sensor_id;sensor_type;location;lat;lon;timestamp;temperature;humidity
39325;DHT22;25037;49.488;9.900;2023-08-08T00:05:30;16.10;68.70
39325;DHT22;25037;49.488;9.900;2023-08-08T00:11:45;16.00;68.80
39325;DHT22;25037;49.488;9.900;2023-08-08T00:28:36;15.90;69.00
39325;DHT22;25037;49.488;9.900;2023-08-08T00:38:36;15.90;69.10
39325;DHT22;25037;49.488;9.900;2023-08-08T00:47:49;15.90;69.00
39325;DHT22;25037;49.488;9.900;2023-08-08T00:54:03;15.90;69.20
39325;DHT22;25037;49.488;9.900;2023-08-08T01:30:54;16.00;69.10
39325;DHT22;25037;49.488;9.900;2023-08-08T01:37:44;16.10;69.20
39325;DHT22;25037;49.488;9.900;2023-08-08T01:47:02;16.20;68.90
39325;DHT22;25037;49.488;9.900;2023-08-08T02:01:08;16.20;69.40
39325;DHT22;25037;49.488;9.900;2023-08-08T02:18:20;15.80;69.80
39325;DHT22;25037;49.488;9.900;2023-08-08T02:47:15;15.20;70.20
39325;DHT22;25037;49.488;9.900;2023-08-08T02:56:54;15.20;70.20
39325;DHT22;25037;49.488;9.900;2023-08-08T03:03:07;15.10;70.20
39325;DHT22;25037;49.488;9.900;2023-08-08T03:16:56;15.00;70.20
39325;DHT22;25037;49.488;9.900;2023-08-08T03:38:19;14.70;70.60
39325;DHT22;25037;49.488;9.900;2023-08-08T03:44:15;14.60;70.50
39325;DHT22;25037;49.488;9.900;2023-08-08T03:50:28;14.60;70.80
39325;DHT22;25037;49.488;9.900;2023-08-08T04:03:44;14.50;70.80
39325;DHT22;25037;49.488;9.900;2023-08-08T04:09:59;14.50;71.00
39325;DHT22;25037;49.488;9.900;2023-08-08T04:16:13;14.40;71.20
39325;DHT22;25037;49.488;9.900;2023-08-08T04:18:40;14.40;71.10
39325;DHT22;25037;49.488;9.900;2023-08-08T04:24:29;14.40;71.00
39325;DHT22;25037;49.488;9.900;2023-08-08T04:38:18;14.70;70.70
39325;DHT22;25037;49.488;9.900;2023-08-08T04:40:44;14.80;70.60
39325;DHT22;25037;49.488;9.900;2023-08-08T04:43:11;14.90;70.70
39325;DHT22;25037;49.488;9.900;2023-08-08T04:49:24;15.10;71.00
39325;DHT22;25037;49.488;9.900;2023-08-08T04:55:37;15.30;70.90
39325;DHT22;25037;49.488;9.900;2023-08-08T05:01:45;15.50;70.60
39325;DHT22;25037;49.488;9.900;2023-08-08T05:11:45;16.10;69.80
39325;DHT22;25037;49.488;9.900;2023-08-08T05:21:46;16.90;68.90
39325;DHT22;25037;49.488;9.900;2023-08-08T05:57:25;20.30;62.60
39325;DHT22;25037;49.488;9.900;2023-08-08T06:18:07;21.60;59.50
39325;DHT22;25037;49.488;9.900;2023-08-08T06:24:20;21.50;59.10
39325;DHT22;25037;49.488;9.900;2023-08-08T06:30:28;22.70;56.80
39325;DHT22;25037;49.488;9.900;2023-08-08T06:36:41;22.90;56.40
39325;DHT22;25037;49.488;9.900;2023-08-08T06:58:03;24.60;53.20
39325;DHT22;25037;49.488;9.900;2023-08-08T07:08:06;25.00;51.80
39325;DHT22;25037;49.488;9.900;2023-08-08T07:10:32;25.20;51.60
39325;DHT22;25037;49.488;9.900;2023-08-08T07:16:40;25.20;50.10
39325;DHT22;25037;49.488;9.900;2023-08-08T07:22:53;25.00;50.00
39325;DHT22;25037;49.488;9.900;2023-08-08T07:29:07;24.80;50.00
39325;DHT22;25037;49.488;9.900;2023-08-08T07:38:45;24.50;50.30
39325;DHT22;25037;49.488;9.900;2023-08-08T07:44:53;24.50;50.10
39325;DHT22;25037;49.488;9.900;2023-08-08T07:50:25;24.60;49.70
39325;DHT22;25037;49.488;9.900;2023-08-08T08:00:25;24.50;49.10
39325;DHT22;25037;49.488;9.900;2023-08-08T08:06:39;24.60;49.00
39325;DHT22;25037;49.488;9.900;2023-08-08T08:27:58;24.10;48.70
39325;DHT22;25037;49.488;9.900;2023-08-08T08:42:05;24.50;48.30
39325;DHT22;25037;49.488;9.900;2023-08-08T08:55:56;25.10;47.30
39325;DHT22;25037;49.488;9.900;2023-08-08T09:06:03;25.30;46.20
39325;DHT22;25037;49.488;9.900;2023-08-08T09:08:49;25.40;45.70
39325;DHT22;25037;49.488;9.900;2023-08-08T09:11:20;25.50;45.90
39325;DHT22;25037;49.488;9.900;2023-08-08T09:17:34;25.70;44.90
39325;DHT22;25037;49.488;9.900;2023-08-08T09:30:28;25.50;44.70
39325;DHT22;25037;49.488;9.900;2023-08-08T09:43:51;25.80;44.10
39325;DHT22;25037;49.488;9.900;2023-08-08T09:53:53;25.50;42.70
39325;DHT22;25037;49.488;9.900;2023-08-08T10:00:02;25.50;42.10
39325;DHT22;25037;49.488;9.900;2023-08-08T10:31:57;25.60;42.30
39325;DHT22;25037;49.488;9.900;2023-08-08T10:42:03;26.20;41.50
39325;DHT22;25037;49.488;9.900;2023-08-08T10:48:51;26.50;40.90
39325;DHT22;25037;49.488;9.900;2023-08-08T10:58:52;26.80;40.00
39325;DHT22;25037;49.488;9.900;2023-08-08T11:05:06;26.80;39.10
39325;DHT22;25037;49.488;9.900;2023-08-08T11:07:34;26.70;39.60
39325;DHT22;25037;49.488;9.900;2023-08-08T11:20:58;26.60;39.80
39325;DHT22;25037;49.488;9.900;2023-08-08T11:27:30;26.80;39.80
39325;DHT22;25037;49.488;9.900;2023-08-08T11:37:27;27.00;39.70
39325;DHT22;25037;49.488;9.900;2023-08-08T11:51:15;27.00;39.60
39325;DHT22;25037;49.488;9.900;2023-08-08T11:57:24;26.80;38.80
39325;DHT22;25037;49.488;9.900;2023-08-08T12:07:24;27.00;39.00
39325;DHT22;25037;49.488;9.900;2023-08-08T12:17:25;27.40;39.00
39325;DHT22;25037;49.488;9.900;2023-08-08T12:23:39;27.40;38.70
39325;DHT22;25037;49.488;9.900;2023-08-08T12:37:21;27.00;38.80
39325;DHT22;25037;49.488;9.900;2023-08-08T12:43:29;27.10;38.90
39325;DHT22;25037;49.488;9.900;2023-08-08T12:53:29;27.30;38.70
39325;DHT22;25037;49.488;9.900;2023-08-08T13:07:16;27.40;38.40
39325;DHT22;25037;49.488;9.900;2023-08-08T13:13:30;27.30;38.30
39325;DHT22;25037;49.488;9.900;2023-08-08T13:27:18;26.80;38.50
39325;DHT22;25037;49.488;9.900;2023-08-08T13:33:31;27.00;38.80
39325;DHT22;25037;49.488;9.900;2023-08-08T13:36:17;27.20;38.40
39325;DHT22;25037;49.488;9.900;2023-08-08T13:46:18;27.50;37.50
39325;DHT22;25037;49.488;9.900;2023-08-08T13:52:32;27.70;37.20
39325;DHT22;25037;49.488;9.900;2023-08-08T13:58:40;27.70;37.00
39325;DHT22;25037;49.488;9.900;2023-08-08T14:18:38;27.30;37.90
39325;DHT22;25037;49.488;9.900;2023-08-08T14:24:51;27.30;37.70
39325;DHT22;25037;49.488;9.900;2023-08-08T14:30:58;27.20;36.20
39325;DHT22;25037;49.488;9.900;2023-08-08T14:40:59;27.00;36.30
39325;DHT22;25037;49.488;9.900;2023-08-08T14:47:13;26.80;36.60
39325;DHT22;25037;49.488;9.900;2023-08-08T14:57:13;26.90;36.00
39325;DHT22;25037;49.488;9.900;2023-08-08T15:03:21;26.90;36.10
39325;DHT22;25037;49.488;9.900;2023-08-08T15:13:23;26.60;36.30
39325;DHT22;25037;49.488;9.900;2023-08-08T15:27:11;26.10;37.10
39325;DHT22;25037;49.488;9.900;2023-08-08T15:33:25;26.00;37.30
39325;DHT22;25037;49.488;9.900;2023-08-08T15:49:53;26.00;36.40
39325;DHT22;25037;49.488;9.900;2023-08-08T16:17:46;25.50;37.50
39325;DHT22;25037;49.488;9.900;2023-08-08T16:24:00;25.20;37.70
39325;DHT22;25037;49.488;9.900;2023-08-08T16:26:45;25.00;38.00
39325;DHT22;25037;49.488;9.900;2023-08-08T16:54:10;23.70;39.70
39325;DHT22;25037;49.488;9.900;2023-08-08T17:10:58;23.40;40.40
39325;DHT22;25037;49.488;9.900;2023-08-08T17:17:12;23.30;40.60
39325;DHT22;25037;49.488;9.900;2023-08-08T17:23:20;23.20;41.10
39325;DHT22;25037;49.488;9.900;2023-08-08T17:40:55;23.00;41.80
39325;DHT22;25037;49.488;9.900;2023-08-08T17:58:42;22.60;43.30
39325;DHT22;25037;49.488;9.900;2023-08-08T18:09:12;22.40;43.90
39325;DHT22;25037;49.488;9.900;2023-08-08T18:17:56;22.30;44.80
39325;DHT22;25037;49.488;9.900;2023-08-08T18:27:15;22.20;45.40
39325;DHT22;25037;49.488;9.900;2023-08-08T18:33:23;22.00;46.30
39325;DHT22;25037;49.488;9.900;2023-08-08T18:46:22;21.70;47.50
39325;DHT22;25037;49.488;9.900;2023-08-08T19:03:58;21.30;49.10
39325;DHT22;25037;49.488;9.900;2023-08-08T19:09:47;21.20;50.50
39325;DHT22;25037;49.488;9.900;2023-08-08T19:23:40;20.90;51.90
39325;DHT22;25037;49.488;9.900;2023-08-08T19:44:20;20.50;51.60
39325;DHT22;25037;49.488;9.900;2023-08-08T19:50:34;20.50;51.80
39325;DHT22;25037;49.488;9.900;2023-08-08T20:08:10;20.30;52.00
39325;DHT22;25037;49.488;9.900;2023-08-08T20:11:02;20.30;52.10
39325;DHT22;25037;49.488;9.900;2023-08-08T20:21:06;20.20;52.40
39325;DHT22;25037;49.488;9.900;2023-08-08T20:34:29;20.20;52.60
39325;DHT22;25037;49.488;9.900;2023-08-08T20:40:43;20.20;52.80
39325;DHT22;25037;49.488;9.900;2023-08-08T20:50:44;20.20;53.00
39325;DHT22;25037;49.488;9.900;2023-08-08T21:00:59;20.10;53.10
39325;DHT22;25037;49.488;9.900;2023-08-08T21:11:00;20.10;53.40
39325;DHT22;25037;49.488;9.900;2023-08-08T21:17:08;20.10;53.70
39325;DHT22;25037;49.488;9.900;2023-08-08T21:27:09;20.10;54.00
39325;DHT22;25037;49.488;9.900;2023-08-08T21:47:47;20.00;54.70
39325;DHT22;25037;49.488;9.900;2023-08-08T22:01:35;19.90;55.00
39325;DHT22;25037;49.488;9.900;2023-08-08T22:07:48;19.90;55.10
39325;DHT22;25037;49.488;9.900;2023-08-08T22:17:24;19.80;55.20
39325;DHT22;25037;49.488;9.900;2023-08-08T22:23:38;19.90;55.40
39325;DHT22;25037;49.488;9.900;2023-08-08T22:41:12;19.70;57.00
39325;DHT22;25037;49.488;9.900;2023-08-08T22:47:06;19.60;57.30
39325;DHT22;25037;49.488;9.900;2023-08-08T23:00:54;19.20;60.10
39325;DHT22;25037;49.488;9.900;2023-08-08T23:06:26;19.10;61.40
39325;DHT22;25037;49.488;9.900;2023-08-08T23:23:42;18.80;62.80
39325;DHT22;25037;49.488;9.900;2023-08-08T23:29:56;18.70;64.00
39325;DHT22;25037;49.488;9.900;2023-08-08T23:36:10;18.70;64.60
39325;DHT22;25037;49.488;9.900;2023-08-08T23:42:18;18.60;65.10
39325;DHT22;25037;49.488;9.900;2023-08-08T23:48:13;18.50;64.50
